Mount Gretna Heights, Pennsylvania
Current Conditions -  °F | °C
As of 11:53 AM on Saturday 20 Dec 2014 (Local Time) from KLNS Reporting Station
Overcast Overcast  
Wind Chill: 27°   Ceiling: 2900
Heat Index: 32°   Visibility: 9mi
Dew Point: 20°   Wind: 5mph
Humidity: 61%   Direction: 10°N
Pressure: 30.27"   Gusts: NA
Location:  40.2477°N, 76.4509°W
Report Text: KLNS 201653Z 01004KT 9SM OVC029 00/M07 A3027 RMK AO2 SLP253 T00001067
Loading
Personal Weather Stations






























Interactive Weather Map New forecast layout! Learn more

10-Day Weather Forecast

Advertisements
Track Severe Weather on mobile